sensor_id;sensor_type;location;lat;lon;timestamp;pressure;altitude;pressure_sealevel;temperature;humidity
77027;BME280;65956;52.986;17.490;2024-02-26T00:00:02;99291.52;;;2.94;100.00
77027;BME280;65956;52.986;17.490;2024-02-26T00:02:31;99296.27;;;2.92;100.00
77027;BME280;65956;52.986;17.490;2024-02-26T00:05:06;99300.36;;;2.93;100.00
77027;BME280;65956;52.986;17.490;2024-02-26T00:07:33;99293.61;;;2.95;100.00
77027;BME280;65956;52.986;17.490;2024-02-26T00:09:59;99293.63;;;2.96;100.00
77027;BME280;65956;52.986;17.490;2024-02-26T00:12:25;99292.78;;;2.92;100.00
77027;BME280;65956;52.986;17.490;2024-02-26T00:14:52;99288.80;;;2.88;100.00
77027;BME280;65956;52.986;17.490;2024-02-26T00:17:19;99286.63;;;2.86;100.00
77027;BME280;65956;52.986;17.490;2024-02-26T00:19:45;99291.91;;;2.87;100.00
77027;BME280;65956;52.986;17.490;2024-02-26T00:22:12;99294.16;;;2.78;100.00
77027;BME280;65956;52.986;17.490;2024-02-26T00:24:40;99298.67;;;2.71;100.00
77027;BME280;65956;52.986;17.490;2024-02-26T00:27:06;99307.71;;;2.68;100.00
77027;BME280;65956;52.986;17.490;2024-02-26T00:29:32;99303.19;;;2.70;100.00
77027;BME280;65956;52.986;17.490;2024-02-26T00:31:58;99302.13;;;2.71;100.00
77027;BME280;65956;52.986;17.490;2024-02-26T00:34:24;99300.30;;;2.72;100.00
77027;BME280;65956;52.986;17.490;2024-02-26T00:36:51;99303.02;;;2.74;100.00
77027;BME280;65956;52.986;17.490;2024-02-26T00:39:17;99298.71;;;2.78;100.00
77027;BME280;65956;52.986;17.490;2024-02-26T00:41:43;99296.46;;;2.81;100.00
77027;BME280;65956;52.986;17.490;2024-02-26T00:44:09;99295.20;;;2.81;100.00
77027;BME280;65956;52.986;17.490;2024-02-26T00:46:35;99294.30;;;2.80;100.00
77027;BME280;65956;52.986;17.490;2024-02-26T00:49:01;99289.17;;;2.82;100.00
77027;BME280;65956;52.986;17.490;2024-02-26T00:51:28;99286.76;;;2.90;100.00
77027;BME280;65956;52.986;17.490;2024-02-26T00:53:55;99285.27;;;2.95;100.00
77027;BME280;65956;52.986;17.490;2024-02-26T00:56:21;99286.17;;;2.99;100.00
77027;BME280;65956;52.986;17.490;2024-02-26T00:58:48;99285.57;;;3.00;100.00
77027;BME280;65956;52.986;17.490;2024-02-26T01:01:14;99284.89;;;3.08;100.00
77027;BME280;65956;52.986;17.490;2024-02-26T01:03:40;99281.40;;;3.21;100.00
77027;BME280;65956;52.986;17.490;2024-02-26T01:06:06;99286.85;;;3.32;100.00
77027;BME280;65956;52.986;17.490;2024-02-26T01:08:32;99282.20;;;3.37;100.00
77027;BME280;65956;52.986;17.490;2024-02-26T01:10:59;99282.77;;;3.30;100.00
77027;BME280;65956;52.986;17.490;2024-02-26T01:13:25;99278.27;;;3.15;100.00
77027;BME280;65956;52.986;17.490;2024-02-26T01:15:51;99282.11;;;2.97;100.00
77027;BME280;65956;52.986;17.490;2024-02-26T01:18:17;99280.12;;;2.81;100.00
77027;BME280;65956;52.986;17.490;2024-02-26T01:20:43;99283.86;;;2.65;100.00
77027;BME280;65956;52.986;17.490;2024-02-26T01:23:10;99280.77;;;2.52;100.00
77027;BME280;65956;52.986;17.490;2024-02-26T01:25:36;99277.92;;;2.39;100.00
77027;BME280;65956;52.986;17.490;2024-02-26T01:28:02;99279.34;;;2.27;100.00
77027;BME280;65956;52.986;17.490;2024-02-26T01:30:29;99278.53;;;2.17;100.00
77027;BME280;65956;52.986;17.490;2024-02-26T01:32:55;99279.65;;;2.06;100.00
77027;BME280;65956;52.986;17.490;2024-02-26T01:35:21;99276.87;;;1.96;100.00
77027;BME280;65956;52.986;17.490;2024-02-26T01:37:47;99278.54;;;1.85;100.00
77027;BME280;65956;52.986;17.490;2024-02-26T01:40:14;99276.84;;;1.77;100.00
77027;BME280;65956;52.986;17.490;2024-02-26T01:42:45;99276.77;;;1.70;100.00
77027;BME280;65956;52.986;17.490;2024-02-26T01:45:16;99275.44;;;1.63;100.00
77027;BME280;65956;52.986;17.490;2024-02-26T01:47:49;99276.33;;;1.64;100.00
77027;BME280;65956;52.986;17.490;2024-02-26T01:50:17;99281.16;;;1.66;100.00
77027;BME280;65956;52.986;17.490;2024-02-26T01:52:49;99277.75;;;1.69;100.00
77027;BME280;65956;52.986;17.490;2024-02-26T01:55:15;99275.77;;;1.71;100.00
77027;BME280;65956;52.986;17.490;2024-02-26T01:57:43;99275.40;;;1.67;100.00
77027;BME280;65956;52.986;17.490;2024-02-26T02:00:12;99274.92;;;1.64;100.00
77027;BME280;65956;52.986;17.490;2024-02-26T02:02:41;99276.80;;;1.62;100.00
77027;BME280;65956;52.986;17.490;2024-02-26T02:05:08;99278.55;;;1.61;100.00
77027;BME280;65956;52.986;17.490;2024-02-26T02:07:35;99281.70;;;1.57;100.00
77027;BME280;65956;52.986;17.490;2024-02-26T02:10:02;99282.89;;;1.52;100.00
77027;BME280;65956;52.986;17.490;2024-02-26T02:12:28;99283.73;;;1.48;100.00
77027;BME280;65956;52.986;17.490;2024-02-26T02:14:55;99286.73;;;1.44;100.00
77027;BME280;65956;52.986;17.490;2024-02-26T02:17:21;99287.21;;;1.42;100.00
77027;BME280;65956;52.986;17.490;2024-02-26T02:19:47;99285.35;;;1.38;100.00
77027;BME280;65956;52.986;17.490;2024-02-26T02:22:13;99286.67;;;1.36;100.00
77027;BME280;65956;52.986;17.490;2024-02-26T02:24:39;99292.66;;;1.34;100.00
77027;BME280;65956;52.986;17.490;2024-02-26T02:27:05;99292.34;;;1.34;100.00
77027;BME280;65956;52.986;17.490;2024-02-26T02:29:32;99295.95;;;1.36;100.00
77027;BME280;65956;52.986;17.490;2024-02-26T02:31:59;99289.73;;;1.36;100.00
77027;BME280;65956;52.986;17.490;2024-02-26T02:34:25;99298.06;;;1.39;100.00
77027;BME280;65956;52.986;17.490;2024-02-26T02:36:52;99296.81;;;1.37;100.00
77027;BME280;65956;52.986;17.490;2024-02-26T02:39:18;99296.48;;;1.34;100.00
77027;BME280;65956;52.986;17.490;2024-02-26T02:41:44;99295.04;;;1.31;100.00
77027;BME280;65956;52.986;17.490;2024-02-26T02:44:11;99291.67;;;1.29;100.00
77027;BME280;65956;52.986;17.490;2024-02-26T02:46:37;99292.89;;;1.24;100.00
77027;BME280;65956;52.986;17.490;2024-02-26T02:49:07;99293.86;;;1.20;100.00
77027;BME280;65956;52.986;17.490;2024-02-26T02:51:33;99293.63;;;1.17;100.00
77027;BME280;65956;52.986;17.490;2024-02-26T02:53:59;99289.19;;;1.11;100.00
77027;BME280;65956;52.986;17.490;2024-02-26T02:56:25;99285.73;;;1.07;100.00
77027;BME280;65956;52.986;17.490;2024-02-26T02:58:52;99287.73;;;1.03;100.00
77027;BME280;65956;52.986;17.490;2024-02-26T03:01:18;99281.77;;;1.02;100.00
77027;BME280;65956;52.986;17.490;2024-02-26T03:03:44;99283.05;;;1.00;100.00
77027;BME280;65956;52.986;17.490;2024-02-26T03:06:10;99280.25;;;0.99;100.00
77027;BME280;65956;52.986;17.490;2024-02-26T03:08:36;99280.09;;;0.97;100.00
77027;BME280;65956;52.986;17.490;2024-02-26T03:11:04;99278.54;;;0.97;100.00
77027;BME280;65956;52.986;17.490;2024-02-26T03:13:30;99276.00;;;0.96;100.00
77027;BME280;65956;52.986;17.490;2024-02-26T03:15:56;99279.32;;;0.95;100.00
77027;BME280;65956;52.986;17.490;2024-02-26T03:18:23;99274.41;;;0.94;100.00
77027;BME280;65956;52.986;17.490;2024-02-26T03:20:49;99275.73;;;0.93;100.00
77027;BME280;65956;52.986;17.490;2024-02-26T03:23:15;99273.23;;;0.91;100.00
77027;BME280;65956;52.986;17.490;2024-02-26T03:25:44;99271.25;;;0.88;100.00
77027;BME280;65956;52.986;17.490;2024-02-26T03:28:12;99268.44;;;0.86;100.00
77027;BME280;65956;52.986;17.490;2024-02-26T03:30:38;99268.70;;;0.83;100.00
77027;BME280;65956;52.986;17.490;2024-02-26T03:33:05;99267.27;;;0.82;100.00
77027;BME280;65956;52.986;17.490;2024-02-26T03:35:31;99265.25;;;0.79;100.00
77027;BME280;65956;52.986;17.490;2024-02-26T03:37:57;99261.02;;;0.75;100.00
77027;BME280;65956;52.986;17.490;2024-02-26T03:40:23;99257.77;;;0.70;100.00
77027;BME280;65956;52.986;17.490;2024-02-26T03:42:50;99257.08;;;0.64;100.00
77027;BME280;65956;52.986;17.490;2024-02-26T03:45:18;99261.81;;;0.63;100.00
77027;BME280;65956;52.986;17.490;2024-02-26T03:47:44;99257.46;;;0.64;100.00
77027;BME280;65956;52.986;17.490;2024-02-26T03:50:10;99266.04;;;0.65;100.00
77027;BME280;65956;52.986;17.490;2024-02-26T03:52:37;99270.59;;;0.65;100.00
77027;BME280;65956;52.986;17.490;2024-02-26T03:55:03;99274.04;;;0.63;100.00
77027;BME280;65956;52.986;17.490;2024-02-26T03:57:30;99279.45;;;0.60;100.00
77027;BME280;65956;52.986;17.490;2024-02-26T03:59:56;99284.13;;;0.57;100.00
77027;BME280;65956;52.986;17.490;2024-02-26T04:02:22;99282.54;;;0.59;100.00
77027;BME280;65956;52.986;17.490;2024-02-26T04:04:49;99284.91;;;0.61;100.00
77027;BME280;65956;52.986;17.490;2024-02-26T04:07:15;99286.61;;;0.62;100.00
77027;BME280;65956;52.986;17.490;2024-02-26T04:09:42;99277.97;;;0.62;100.00
77027;BME280;65956;52.986;17.490;2024-02-26T04:12:09;99284.93;;;0.64;100.00
77027;BME280;65956;52.986;17.490;2024-02-26T04:14:36;99284.92;;;0.69;100.00
77027;BME280;65956;52.986;17.490;2024-02-26T04:17:02;99286.24;;;0.75;100.00
77027;BME280;65956;52.986;17.490;2024-02-26T04:19:29;99289.83;;;0.80;100.00
77027;BME280;65956;52.986;17.490;2024-02-26T04:21:55;99287.34;;;0.85;100.00
77027;BME280;65956;52.986;17.490;2024-02-26T04:24:21;99293.31;;;0.88;100.00
77027;BME280;65956;52.986;17.490;2024-02-26T04:26:47;99289.83;;;0.88;100.00
77027;BME280;65956;52.986;17.490;2024-02-26T04:29:15;99293.19;;;0.90;100.00
77027;BME280;65956;52.986;17.490;2024-02-26T04:31:41;99290.84;;;0.90;100.00
77027;BME280;65956;52.986;17.490;2024-02-26T04:34:08;99288.27;;;0.91;100.00
77027;BME280;65956;52.986;17.490;2024-02-26T04:36:34;99284.34;;;0.90;100.00
77027;BME280;65956;52.986;17.490;2024-02-26T04:39:01;99287.88;;;0.91;100.00
77027;BME280;65956;52.986;17.490;2024-02-26T04:41:27;99283.67;;;0.89;100.00
77027;BME280;65956;52.986;17.490;2024-02-26T04:43:53;99284.73;;;0.86;100.00
77027;BME280;65956;52.986;17.490;2024-02-26T04:46:19;99285.28;;;0.84;100.00
77027;BME280;65956;52.986;17.490;2024-02-26T04:48:47;99291.63;;;0.82;100.00
77027;BME280;65956;52.986;17.490;2024-02-26T04:51:13;99292.44;;;0.81;100.00
77027;BME280;65956;52.986;17.490;2024-02-26T04:53:40;99292.89;;;0.79;100.00
77027;BME280;65956;52.986;17.490;2024-02-26T04:56:06;99297.66;;;0.76;100.00
77027;BME280;65956;52.986;17.490;2024-02-26T04:58:32;99297.04;;;0.75;100.00
77027;BME280;65956;52.986;17.490;2024-02-26T05:00:58;99299.02;;;0.73;100.00
77027;BME280;65956;52.986;17.490;2024-02-26T05:03:24;99298.31;;;0.69;100.00
77027;BME280;65956;52.986;17.490;2024-02-26T05:05:50;99299.67;;;0.64;100.00
77027;BME280;65956;52.986;17.490;2024-02-26T05:08:17;99303.98;;;0.63;100.00
77027;BME280;65956;52.986;17.490;2024-02-26T05:10:45;99311.05;;;0.60;100.00
77027;BME280;65956;52.986;17.490;2024-02-26T05:13:11;99314.49;;;0.59;100.00
77027;BME280;65956;52.986;17.490;2024-02-26T05:15:37;99316.53;;;0.57;100.00
77027;BME280;65956;52.986;17.490;2024-02-26T05:18:04;99318.36;;;0.55;100.00
77027;BME280;65956;52.986;17.490;2024-02-26T05:20:30;99320.80;;;0.54;100.00
77027;BME280;65956;52.986;17.490;2024-02-26T05:22:57;99324.79;;;0.52;100.00
77027;BME280;65956;52.986;17.490;2024-02-26T05:25:27;99327.80;;;0.49;100.00
77027;BME280;65956;52.986;17.490;2024-02-26T05:27:53;99326.38;;;0.44;100.00
77027;BME280;65956;52.986;17.490;2024-02-26T05:30:19;99329.63;;;0.40;100.00
77027;BME280;65956;52.986;17.490;2024-02-26T05:32:45;99333.17;;;0.35;100.00
77027;BME280;65956;52.986;17.490;2024-02-26T05:35:12;99329.60;;;0.28;100.00
77027;BME280;65956;52.986;17.490;2024-02-26T05:37:38;99334.24;;;0.23;100.00
77027;BME280;65956;52.986;17.490;2024-02-26T05:40:05;99338.39;;;0.19;100.00
77027;BME280;65956;52.986;17.490;2024-02-26T05:42:31;99342.60;;;0.17;100.00
77027;BME280;65956;52.986;17.490;2024-02-26T05:44:57;99337.41;;;0.15;100.00
77027;BME280;65956;52.986;17.490;2024-02-26T05:47:23;99340.98;;;0.14;100.00
77027;BME280;65956;52.986;17.490;2024-02-26T05:49:50;99345.16;;;0.13;100.00
77027;BME280;65956;52.986;17.490;2024-02-26T05:52:16;99350.68;;;0.10;100.00
77027;BME280;65956;52.986;17.490;2024-02-26T05:54:42;99349.39;;;0.09;100.00
77027;BME280;65956;52.986;17.490;2024-02-26T05:57:08;99350.80;;;0.09;100.00
77027;BME280;65956;52.986;17.490;2024-02-26T05:59:34;99348.71;;;0.08;100.00
77027;BME280;65956;52.986;17.490;2024-02-26T06:02:00;99353.78;;;0.08;100.00
77027;BME280;65956;52.986;17.490;2024-02-26T06:04:26;99352.68;;;0.08;100.00
77027;BME280;65956;52.986;17.490;2024-02-26T06:06:52;99336.62;;;0.08;100.00
77027;BME280;65956;52.986;17.490;2024-02-26T06:09:18;99333.66;;;0.09;100.00
77027;BME280;65956;52.986;17.490;2024-02-26T06:11:44;99338.27;;;0.11;100.00
77027;BME280;65956;52.986;17.490;2024-02-26T06:14:10;99331.76;;;0.12;100.00
77027;BME280;65956;52.986;17.490;2024-02-26T06:16:38;99334.06;;;0.15;100.00
77027;BME280;65956;52.986;17.490;2024-02-26T06:19:04;99334.71;;;0.15;100.00
77027;BME280;65956;52.986;17.490;2024-02-26T06:21:30;99343.09;;;0.16;100.00
77027;BME280;65956;52.986;17.490;2024-02-26T06:23:56;99341.47;;;0.18;100.00
77027;BME280;65956;52.986;17.490;2024-02-26T06:26:22;99341.91;;;0.19;100.00
77027;BME280;65956;52.986;17.490;2024-02-26T06:28:48;99345.77;;;0.22;100.00
77027;BME280;65956;52.986;17.490;2024-02-26T06:31:15;99344.77;;;0.24;100.00
77027;BME280;65956;52.986;17.490;2024-02-26T06:33:41;99346.81;;;0.28;100.00
77027;BME280;65956;52.986;17.490;2024-02-26T06:36:07;99347.51;;;0.33;100.00
77027;BME280;65956;52.986;17.490;2024-02-26T06:38:33;99348.52;;;0.35;100.00
77027;BME280;65956;52.986;17.490;2024-02-26T06:40:59;99345.70;;;0.39;100.00
77027;BME280;65956;52.986;17.490;2024-02-26T06:43:25;99350.11;;;0.41;100.00
77027;BME280;65956;52.986;17.490;2024-02-26T06:45:51;99354.52;;;0.45;100.00
77027;BME280;65956;52.986;17.490;2024-02-26T06:48:17;99351.90;;;0.46;100.00
77027;BME280;65956;52.986;17.490;2024-02-26T06:50:43;99354.04;;;0.49;100.00
77027;BME280;65956;52.986;17.490;2024-02-26T06:53:10;99357.73;;;0.53;100.00
77027;BME280;65956;52.986;17.490;2024-02-26T06:55:36;99368.38;;;0.59;100.00
77027;BME280;65956;52.986;17.490;2024-02-26T06:58:06;99371.39;;;0.65;100.00
77027;BME280;65956;52.986;17.490;2024-02-26T07:00:32;99367.55;;;0.69;100.00
77027;BME280;65956;52.986;17.490;2024-02-26T07:02:58;99366.05;;;0.73;100.00
77027;BME280;65956;52.986;17.490;2024-02-26T07:05:24;99369.70;;;0.79;100.00
77027;BME280;65956;52.986;17.490;2024-02-26T07:07:50;99370.92;;;0.86;100.00
77027;BME280;65956;52.986;17.490;2024-02-26T07:10:16;99373.02;;;0.92;100.00
77027;BME280;65956;52.986;17.490;2024-02-26T07:12:42;99375.39;;;0.99;100.00
77027;BME280;65956;52.986;17.490;2024-02-26T07:15:09;99376.28;;;1.07;100.00
77027;BME280;65956;52.986;17.490;2024-02-26T07:17:35;99373.23;;;1.14;100.00
77027;BME280;65956;52.986;17.490;2024-02-26T07:20:02;99375.20;;;1.20;100.00
77027;BME280;65956;52.986;17.490;2024-02-26T07:22:31;99376.33;;;1.24;100.00
77027;BME280;65956;52.986;17.490;2024-02-26T07:24:57;99377.88;;;1.28;100.00
77027;BME280;65956;52.986;17.490;2024-02-26T07:27:23;99378.85;;;1.37;100.00
77027;BME280;65956;52.986;17.490;2024-02-26T07:29:49;99382.41;;;1.44;100.00
77027;BME280;65956;52.986;17.490;2024-02-26T07:32:16;99382.74;;;1.49;100.00
77027;BME280;65956;52.986;17.490;2024-02-26T07:34:42;99389.34;;;1.59;100.00
77027;BME280;65956;52.986;17.490;2024-02-26T07:37:13;99390.96;;;1.69;100.00
77027;BME280;65956;52.986;17.490;2024-02-26T07:39:39;99396.91;;;1.77;100.00
77027;BME280;65956;52.986;17.490;2024-02-26T07:42:05;99400.00;;;1.85;100.00
77027;BME280;65956;52.986;17.490;2024-02-26T07:44:33;99396.48;;;1.92;100.00
77027;BME280;65956;52.986;17.490;2024-02-26T07:46:59;99398.60;;;1.98;100.00
77027;BME280;65956;52.986;17.490;2024-02-26T07:49:25;99401.63;;;2.03;100.00
77027;BME280;65956;52.986;17.490;2024-02-26T07:51:52;99400.52;;;2.06;100.00
77027;BME280;65956;52.986;17.490;2024-02-26T07:54:18;99400.54;;;2.13;100.00
77027;BME280;65956;52.986;17.490;2024-02-26T07:56:45;99405.67;;;2.20;100.00
77027;BME280;65956;52.986;17.490;2024-02-26T07:59:11;99401.86;;;2.23;100.00
77027;BME280;65956;52.986;17.490;2024-02-26T08:01:37;99403.90;;;2.30;100.00
77027;BME280;65956;52.986;17.490;2024-02-26T08:04:04;99403.83;;;2.33;100.00
77027;BME280;65956;52.986;17.490;2024-02-26T08:06:31;99400.48;;;2.38;100.00
77027;BME280;65956;52.986;17.490;2024-02-26T08:08:57;99404.60;;;2.48;100.00
77027;BME280;65956;52.986;17.490;2024-02-26T08:11:23;99404.04;;;2.59;100.00
77027;BME280;65956;52.986;17.490;2024-02-26T08:13:49;99410.27;;;2.67;100.00
77027;BME280;65956;52.986;17.490;2024-02-26T08:16:15;99415.23;;;2.74;100.00
77027;BME280;65956;52.986;17.490;2024-02-26T08:18:41;99415.56;;;2.81;100.00
77027;BME280;65956;52.986;17.490;2024-02-26T08:21:07;99418.38;;;2.91;100.00
77027;BME280;65956;52.986;17.490;2024-02-26T08:23:34;99416.65;;;2.95;100.00
77027;BME280;65956;52.986;17.490;2024-02-26T08:26:00;99417.23;;;2.97;100.00
77027;BME280;65956;52.986;17.490;2024-02-26T08:28:26;99422.81;;;3.06;100.00
77027;BME280;65956;52.986;17.490;2024-02-26T08:30:52;99423.90;;;3.18;100.00
77027;BME280;65956;52.986;17.490;2024-02-26T08:33:18;99421.80;;;3.29;100.00
77027;BME280;65956;52.986;17.490;2024-02-26T08:35:45;99419.60;;;3.39;100.00
77027;BME280;65956;52.986;17.490;2024-02-26T08:38:11;99422.20;;;3.49;100.00
77027;BME280;65956;52.986;17.490;2024-02-26T08:40:37;99422.16;;;3.58;100.00
77027;BME280;65956;52.986;17.490;2024-02-26T08:43:03;99420.73;;;3.66;100.00
77027;BME280;65956;52.986;17.490;2024-02-26T08:45:29;99415.91;;;3.76;100.00
77027;BME280;65956;52.986;17.490;2024-02-26T08:47:55;99420.67;;;3.85;100.00
77027;BME280;65956;52.986;17.490;2024-02-26T08:50:21;99417.02;;;3.89;100.00
77027;BME280;65956;52.986;17.490;2024-02-26T08:52:47;99421.58;;;3.94;100.00
77027;BME280;65956;52.986;17.490;2024-02-26T08:55:17;99423.69;;;3.99;100.00
77027;BME280;65956;52.986;17.490;2024-02-26T08:57:43;99428.66;;;4.05;100.00
77027;BME280;65956;52.986;17.490;2024-02-26T09:00:09;99427.71;;;4.16;100.00
77027;BME280;65956;52.986;17.490;2024-02-26T09:02:35;99429.84;;;4.27;100.00
77027;BME280;65956;52.986;17.490;2024-02-26T09:05:05;99434.01;;;4.36;100.00
77027;BME280;65956;52.986;17.490;2024-02-26T09:07:31;99438.63;;;4.43;100.00
77027;BME280;65956;52.986;17.490;2024-02-26T09:09:57;99442.04;;;4.53;100.00
77027;BME280;65956;52.986;17.490;2024-02-26T09:12:23;99451.34;;;4.65;100.00
77027;BME280;65956;52.986;17.490;2024-02-26T09:14:50;99449.48;;;4.78;100.00
77027;BME280;65956;52.986;17.490;2024-02-26T09:17:16;99452.20;;;4.95;100.00
77027;BME280;65956;52.986;17.490;2024-02-26T09:19:42;99447.31;;;5.08;100.00
77027;BME280;65956;52.986;17.490;2024-02-26T09:22:08;99454.48;;;5.21;100.00
77027;BME280;65956;52.986;17.490;2024-02-26T09:24:36;99450.88;;;5.34;100.00
77027;BME280;65956;52.986;17.490;2024-02-26T09:27:02;99447.02;;;5.44;100.00
77027;BME280;65956;52.986;17.490;2024-02-26T09:29:28;99441.86;;;5.51;100.00
77027;BME280;65956;52.986;17.490;2024-02-26T09:31:55;99440.13;;;5.51;100.00
77027;BME280;65956;52.986;17.490;2024-02-26T09:34:21;99438.85;;;5.54;100.00
77027;BME280;65956;52.986;17.490;2024-02-26T09:36:47;99442.69;;;5.56;100.00
77027;BME280;65956;52.986;17.490;2024-02-26T09:39:13;99438.78;;;5.57;100.00
77027;BME280;65956;52.986;17.490;2024-02-26T09:41:40;99438.34;;;5.62;100.00
77027;BME280;65956;52.986;17.490;2024-02-26T09:44:08;99442.67;;;5.69;100.00
77027;BME280;65956;52.986;17.490;2024-02-26T09:46:35;99441.64;;;5.75;100.00
77027;BME280;65956;52.986;17.490;2024-02-26T09:49:01;99441.70;;;5.85;100.00
77027;BME280;65956;52.986;17.490;2024-02-26T09:51:28;99442.59;;;5.96;100.00
77027;BME280;65956;52.986;17.490;2024-02-26T09:53:56;99441.55;;;6.07;100.00
77027;BME280;65956;52.986;17.490;2024-02-26T09:56:25;99438.73;;;6.15;100.00
77027;BME280;65956;52.986;17.490;2024-02-26T09:58:52;99435.12;;;6.25;100.00
77027;BME280;65956;52.986;17.490;2024-02-26T10:01:20;99430.90;;;6.35;100.00
77027;BME280;65956;52.986;17.490;2024-02-26T10:03:56;99431.19;;;6.46;100.00
77027;BME280;65956;52.986;17.490;2024-02-26T10:06:25;99428.52;;;6.60;100.00
77027;BME280;65956;52.986;17.490;2024-02-26T10:08:53;99432.98;;;6.74;100.00
77027;BME280;65956;52.986;17.490;2024-02-26T10:11:19;99431.45;;;6.90;100.00
77027;BME280;65956;52.986;17.490;2024-02-26T10:13:45;99435.05;;;7.06;100.00
77027;BME280;65956;52.986;17.490;2024-02-26T10:16:11;99436.23;;;7.20;100.00
77027;BME280;65956;52.986;17.490;2024-02-26T10:18:51;99440.05;;;7.38;100.00
77027;BME280;65956;52.986;17.490;2024-02-26T10:21:19;99441.98;;;7.54;100.00
77027;BME280;65956;52.986;17.490;2024-02-26T10:23:46;99440.11;;;7.67;100.00
77027;BME280;65956;52.986;17.490;2024-02-26T10:26:14;99438.51;;;7.83;100.00
77027;BME280;65956;52.986;17.490;2024-02-26T10:28:42;99444.52;;;8.00;100.00
77027;BME280;65956;52.986;17.490;2024-02-26T10:31:09;99442.14;;;8.18;100.00
77027;BME280;65956;52.986;17.490;2024-02-26T10:33:36;99444.59;;;8.35;100.00
77027;BME280;65956;52.986;17.490;2024-02-26T10:36:04;99443.30;;;8.53;100.00
77027;BME280;65956;52.986;17.490;2024-02-26T10:38:32;99444.54;;;8.72;100.00
77027;BME280;65956;52.986;17.490;2024-02-26T10:40:58;99445.50;;;8.90;100.00
77027;BME280;65956;52.986;17.490;2024-02-26T10:43:25;99444.34;;;9.09;100.00
77027;BME280;65956;52.986;17.490;2024-02-26T10:45:51;99439.10;;;9.29;100.00
77027;BME280;65956;52.986;17.490;2024-02-26T10:48:18;99431.30;;;9.47;100.00
77027;BME280;65956;52.986;17.490;2024-02-26T10:50:44;99433.39;;;9.62;99.20
77027;BME280;65956;52.986;17.490;2024-02-26T10:53:15;99432.39;;;9.81;98.46
77027;BME280;65956;52.986;17.490;2024-02-26T10:55:45;99431.46;;;10.02;97.90
77027;BME280;65956;52.986;17.490;2024-02-26T10:58:13;99430.73;;;10.24;97.09
77027;BME280;65956;52.986;17.490;2024-02-26T11:00:39;99434.00;;;10.48;96.60
77027;BME280;65956;52.986;17.490;2024-02-26T11:03:08;99435.64;;;10.71;95.78
77027;BME280;65956;52.986;17.490;2024-02-26T11:05:36;99438.95;;;10.90;93.07
77027;BME280;65956;52.986;17.490;2024-02-26T11:08:04;99433.71;;;11.06;93.54
77027;BME280;65956;52.986;17.490;2024-02-26T11:10:31;99432.85;;;11.20;92.52
77027;BME280;65956;52.986;17.490;2024-02-26T11:12:59;99432.84;;;11.40;91.36
77027;BME280;65956;52.986;17.490;2024-02-26T11:15:25;99428.99;;;11.69;90.76
77027;BME280;65956;52.986;17.490;2024-02-26T11:17:52;99434.45;;;11.99;89.16
77027;BME280;65956;52.986;17.490;2024-02-26T11:20:19;99435.82;;;12.21;87.88
77027;BME280;65956;52.986;17.490;2024-02-26T11:22:46;99436.05;;;12.44;88.11
77027;BME280;65956;52.986;17.490;2024-02-26T11:25:12;99437.04;;;12.66;87.29
77027;BME280;65956;52.986;17.490;2024-02-26T11:27:43;99437.83;;;12.81;86.33
77027;BME280;65956;52.986;17.490;2024-02-26T11:30:12;99440.33;;;12.92;85.89
77027;BME280;65956;52.986;17.490;2024-02-26T11:32:39;99440.70;;;13.08;84.22
77027;BME280;65956;52.986;17.490;2024-02-26T11:35:05;99440.53;;;13.22;83.97
77027;BME280;65956;52.986;17.490;2024-02-26T11:37:33;99436.16;;;13.49;83.86
77027;BME280;65956;52.986;17.490;2024-02-26T11:39:59;99434.02;;;13.88;82.56
77027;BME280;65956;52.986;17.490;2024-02-26T11:42:29;99432.52;;;14.22;82.15
77027;BME280;65956;52.986;17.490;2024-02-26T11:44:55;99435.27;;;14.55;79.82
77027;BME280;65956;52.986;17.490;2024-02-26T11:47:27;99433.13;;;14.93;79.94
77027;BME280;65956;52.986;17.490;2024-02-26T11:49:53;99431.35;;;15.25;79.47
77027;BME280;65956;52.986;17.490;2024-02-26T11:52:19;99430.35;;;15.57;79.86
77027;BME280;65956;52.986;17.490;2024-02-26T11:54:47;99428.38;;;15.79;76.54
77027;BME280;65956;52.986;17.490;2024-02-26T11:59:47;99430.64;;;16.43;71.49
77027;BME280;65956;52.986;17.490;2024-02-26T12:05:25;99428.97;;;17.02;70.80
77027;BME280;65956;52.986;17.490;2024-02-26T12:07:59;99428.17;;;17.22;66.98
77027;BME280;65956;52.986;17.490;2024-02-26T12:10:32;99422.81;;;17.00;66.68
77027;BME280;65956;52.986;17.490;2024-02-26T12:13:16;99425.42;;;16.58;68.91
77027;BME280;65956;52.986;17.490;2024-02-26T12:15:45;99421.06;;;16.48;68.22
77027;BME280;65956;52.986;17.490;2024-02-26T12:18:18;99421.99;;;16.46;66.89
77027;BME280;65956;52.986;17.490;2024-02-26T12:20:44;99425.26;;;16.67;68.28
77027;BME280;65956;52.986;17.490;2024-02-26T12:23:17;99422.43;;;16.89;67.07
77027;BME280;65956;52.986;17.490;2024-02-26T12:25:43;99421.88;;;17.06;66.61
77027;BME280;65956;52.986;17.490;2024-02-26T12:28:10;99424.88;;;17.22;65.96
77027;BME280;65956;52.986;17.490;2024-02-26T12:30:36;99422.66;;;17.34;65.85
77027;BME280;65956;52.986;17.490;2024-02-26T12:33:02;99417.56;;;17.51;63.97
77027;BME280;65956;52.986;17.490;2024-02-26T12:35:29;99416.65;;;17.86;65.29
77027;BME280;65956;52.986;17.490;2024-02-26T12:37:58;99415.62;;;18.43;63.04
77027;BME280;65956;52.986;17.490;2024-02-26T12:40:25;99411.91;;;18.95;61.38
77027;BME280;65956;52.986;17.490;2024-02-26T12:42:55;99413.02;;;19.90;58.46
77027;BME280;65956;52.986;17.490;2024-02-26T12:45:27;99412.33;;;20.87;58.16
77027;BME280;65956;52.986;17.490;2024-02-26T12:47:54;99414.99;;;21.84;55.41
77027;BME280;65956;52.986;17.490;2024-02-26T12:50:46;99414.59;;;22.38;54.16
77027;BME280;65956;52.986;17.490;2024-02-26T12:53:15;99420.52;;;22.87;54.66